Time;durP1;ratioP1;P1;durP2;ratioP2;P2;SDS_P1;SDS_P2;PMS_P1;PMS_P2;Temp;Humidity;BMP_temperature;BMP_pressure;BME280_temperature;BME280_humidity;BME280_pressure;Samples;Min_cycle;Max_cycle;Signal;HPM_P1;HPM_P2
2023/12/23 00:01:19;;;;;;;57.10;42.90;;;5.90;99.90;;;;;;5035170;28;20032;-68
2023/12/23 00:03:45;;;;;;;58.45;45.97;;;5.80;99.90;;;;;;5035135;28;20387;-64
2023/12/23 00:06:11;;;;;;;46.63;35.72;;;5.70;99.90;;;;;;5035133;28;20030;-65
2023/12/23 00:08:37;;;;;;;42.35;34.08;;;5.70;99.90;;;;;;5035247;28;20045;-62
2023/12/23 00:11:03;;;;;;;37.47;29.83;;;5.80;99.90;;;;;;5035008;28;20022;-62
2023/12/23 00:13:29;;;;;;;35.60;29.65;;;5.90;99.90;;;;;;5035057;28;20080;-64
2023/12/23 00:15:54;;;;;;;32.28;26.15;;;6.00;99.90;;;;;;5035076;28;20021;-66
2023/12/23 00:18:20;;;;;;;36.42;28.25;;;6.10;99.90;;;;;;5034897;28;20113;-61
2023/12/23 00:20:47;;;;;;;45.25;35.80;;;6.20;99.90;;;;;;5034798;28;20455;-67
2023/12/23 00:23:13;;;;;;;36.50;28.55;;;6.20;99.90;;;;;;5034889;28;20021;-67
2023/12/23 00:25:39;;;;;;;33.92;25.65;;;6.20;99.90;;;;;;5034735;28;20391;-60
2023/12/23 00:28:05;;;;;;;36.58;27.55;;;6.20;99.90;;;;;;5034772;28;20017;-65
2023/12/23 00:30:31;;;;;;;28.58;22.83;;;6.20;99.90;;;;;;5034786;28;20063;-67
2023/12/23 00:32:57;;;;;;;45.60;34.08;;;6.20;99.90;;;;;;5034579;28;20057;-66
2023/12/23 00:35:22;;;;;;;37.35;29.92;;;6.20;99.90;;;;;;5034391;28;20083;-60
2023/12/23 00:37:48;;;;;;;35.33;27.67;;;6.10;99.90;;;;;;5034502;28;20535;-62
2023/12/23 00:40:14;;;;;;;30.13;23.15;;;6.10;99.90;;;;;;5034619;28;20033;-68
2023/12/23 00:42:40;;;;;;;24.17;19.70;;;6.10;99.90;;;;;;5034423;28;20033;-68
2023/12/23 00:45:06;;;;;;;23.08;18.08;;;6.10;99.90;;;;;;5034768;28;20096;-62
2023/12/23 00:47:32;;;;;;;22.13;17.48;;;6.10;99.90;;;;;;5034488;28;20022;-60
2023/12/23 00:49:58;;;;;;;20.67;17.15;;;6.10;99.90;;;;;;5033139;28;20124;-64
2023/12/23 00:52:24;;;;;;;40.60;30.35;;;6.10;99.90;;;;;;5034220;28;20025;-68
2023/12/23 00:54:49;;;;;;;23.23;18.42;;;6.10;99.90;;;;;;5034260;28;20022;-64
2023/12/23 00:57:15;;;;;;;35.05;26.05;;;6.10;99.90;;;;;;5034361;28;20060;-61
2023/12/23 00:59:41;;;;;;;23.27;18.52;;;6.10;99.90;;;;;;5033924;28;20057;-63
2023/12/23 01:02:07;;;;;;;25.15;19.98;;;6.00;99.90;;;;;;5034162;28;20053;-65
2023/12/23 01:04:32;;;;;;;26.45;19.27;;;6.10;99.90;;;;;;5033915;28;20029;-66
2023/12/23 01:06:58;;;;;;;32.30;22.70;;;6.10;99.90;;;;;;5034093;28;20025;-65
2023/12/23 01:09:24;;;;;;;22.42;18.15;;;6.20;99.90;;;;;;5034023;28;20022;-64
2023/12/23 01:11:50;;;;;;;23.00;17.75;;;6.10;99.90;;;;;;5034097;28;20096;-64
2023/12/23 01:14:15;;;;;;;21.10;17.77;;;6.20;99.90;;;;;;5033846;28;20079;-63
2023/12/23 01:16:41;;;;;;;22.02;17.65;;;6.30;99.90;;;;;;5033902;28;20021;-65
2023/12/23 01:19:07;;;;;;;26.25;20.58;;;6.30;99.90;;;;;;5033697;28;20052;-65
2023/12/23 01:21:33;;;;;;;33.13;24.35;;;6.40;99.90;;;;;;5033955;28;20101;-64
2023/12/23 01:23:59;;;;;;;34.00;25.92;;;6.40;99.90;;;;;;5032614;28;20112;-64
2023/12/23 01:26:25;;;;;;;23.83;19.30;;;6.40;99.90;;;;;;5033836;28;20018;-62
2023/12/23 01:28:50;;;;;;;22.35;17.92;;;6.40;99.90;;;;;;5033559;28;20056;-61
2023/12/23 01:31:21;;;;;;;23.27;18.38;;;6.40;99.90;;;;;;5033732;28;20091;-65
2023/12/23 01:33:46;;;;;;;19.98;15.95;;;6.50;99.90;;;;;;5033327;28;20029;-62
2023/12/23 01:36:12;;;;;;;18.17;15.48;;;6.50;99.90;;;;;;5033484;28;20026;-59
2023/12/23 01:38:38;;;;;;;20.52;15.32;;;6.50;99.90;;;;;;5033564;28;20018;-64
2023/12/23 01:41:03;;;;;;;19.95;15.82;;;6.50;99.90;;;;;;5033462;28;20078;-68
2023/12/23 01:43:29;;;;;;;17.98;13.57;;;6.50;99.90;;;;;;5033360;28;20514;-63
2023/12/23 01:46:00;;;;;;;15.57;13.40;;;6.50;99.90;;;;;;5033606;28;20387;-64
2023/12/23 01:48:27;;;;;;;28.80;21.83;;;6.60;99.90;;;;;;5033246;28;20216;-64
2023/12/23 01:50:55;;;;;;;17.52;13.95;;;6.60;99.90;;;;;;5033265;28;20092;-64
2023/12/23 01:53:22;;;;;;;21.50;16.45;;;6.50;99.90;;;;;;5033428;28;20115;-66
2023/12/23 01:55:48;;;;;;;26.75;20.73;;;6.50;99.90;;;;;;5033491;28;20480;-66
2023/12/23 01:58:14;;;;;;;20.70;15.85;;;6.50;99.90;;;;;;5031871;28;20053;-62
2023/12/23 02:00:40;;;;;;;20.42;16.30;;;6.40;99.90;;;;;;5032804;28;20464;-60
2023/12/23 02:03:05;;;;;;;24.42;18.38;;;6.40;99.90;;;;;;5033327;28;20119;-65
2023/12/23 02:05:31;;;;;;;23.42;18.35;;;6.40;99.90;;;;;;5032007;28;20029;-59
2023/12/23 02:07:57;;;;;;;29.92;24.40;;;6.30;99.90;;;;;;5033095;28;20022;-61
2023/12/23 02:10:24;;;;;;;27.83;21.45;;;6.10;99.90;;;;;;5033236;28;20044;-65
2023/12/23 02:13:01;;;;;;;27.60;20.05;;;6.00;99.90;;;;;;5033031;28;20496;-64
2023/12/23 02:15:28;;;;;;;24.45;19.83;;;6.00;99.90;;;;;;5033009;28;20103;-63
2023/12/23 02:18:00;;;;;;;21.52;17.98;;;6.00;99.90;;;;;;5033159;28;20017;-67
2023/12/23 02:20:26;;;;;;;24.25;19.13;;;6.00;99.90;;;;;;5033078;28;20032;-64
2023/12/23 02:22:53;;;;;;;24.85;19.88;;;6.00;99.90;;;;;;5033091;28;20030;-64
2023/12/23 02:25:19;;;;;;;21.60;17.88;;;6.00;99.90;;;;;;5033024;28;20052;-71
2023/12/23 02:27:52;;;;;;;22.05;17.25;;;6.00;99.90;;;;;;5032915;28;20013;-66
2023/12/23 02:30:19;;;;;;;20.55;16.27;;;6.00;99.90;;;;;;5032816;28;20080;-64
2023/12/23 02:32:45;;;;;;;24.23;17.92;;;6.00;99.90;;;;;;5032960;28;20033;-62
2023/12/23 02:35:14;;;;;;;19.65;16.13;;;6.00;99.90;;;;;;5031512;28;20083;-62
2023/12/23 02:37:41;;;;;;;36.55;26.85;;;5.90;99.90;;;;;;5033072;28;20096;-62
2023/12/23 02:40:08;;;;;;;28.35;22.55;;;5.80;99.90;;;;;;5032926;28;20045;-64
2023/12/23 02:42:33;;;;;;;26.45;21.00;;;5.50;99.90;;;;;;5031604;28;20029;-62
2023/12/23 02:44:59;;;;;;;26.33;19.42;;;5.40;99.90;;;;;;5032759;28;20440;-67
2023/12/23 02:47:25;;;;;;;25.40;19.50;;;5.40;99.90;;;;;;5032890;28;20025;-68
2023/12/23 02:49:51;;;;;;;22.38;17.25;;;5.40;99.90;;;;;;5032657;28;20029;-67
2023/12/23 02:52:16;;;;;;;18.88;15.43;;;5.30;99.90;;;;;;5032764;28;20026;-63
2023/12/23 02:54:42;;;;;;;24.42;17.80;;;5.30;99.90;;;;;;5032806;28;20034;-62
2023/12/23 02:57:07;;;;;;;18.50;14.93;;;5.40;99.90;;;;;;5032720;28;20025;-63
2023/12/23 02:59:33;;;;;;;18.90;14.93;;;5.30;99.90;;;;;;5032189;28;21465;-64
2023/12/23 03:01:59;;;;;;;17.58;13.63;;;5.40;99.90;;;;;;5032731;28;20029;-68
2023/12/23 03:04:24;;;;;;;17.50;13.27;;;5.40;99.90;;;;;;5032622;28;20387;-64
2023/12/23 03:06:50;;;;;;;16.35;13.02;;;5.50;99.90;;;;;;5032871;28;20190;-63
2023/12/23 03:09:16;;;;;;;15.35;12.65;;;5.50;99.90;;;;;;5032699;28;20052;-64
2023/12/23 03:11:42;;;;;;;26.92;20.15;;;5.60;99.90;;;;;;5032654;28;20529;-63
2023/12/23 03:14:07;;;;;;;23.02;18.60;;;5.60;99.90;;;;;;5035441;28;20067;-64
2023/12/23 03:16:36;;;;;;;35.28;27.80;;;5.50;99.90;;;;;;5036205;28;20033;-65
2023/12/23 03:19:03;;;;;;;22.90;17.88;;;5.60;99.90;;;;;;5036216;28;20047;-62
2023/12/23 03:21:29;;;;;;;22.75;17.80;;;5.50;99.90;;;;;;5035921;28;20072;-66
2023/12/23 03:23:55;;;;;;;48.63;35.80;;;5.60;99.90;;;;;;5036102;28;20086;-66
2023/12/23 03:26:21;;;;;;;25.33;19.63;;;5.60;99.90;;;;;;5036068;28;20476;-58
2023/12/23 03:28:46;;;;;;;21.83;17.08;;;5.60;99.90;;;;;;5035736;28;20067;-70
2023/12/23 03:31:12;;;;;;;19.38;15.02;;;5.60;99.90;;;;;;5035978;28;20022;-64
2023/12/23 03:33:40;;;;;;;18.67;13.80;;;5.60;99.90;;;;;;5035854;28;20026;-67
2023/12/23 03:36:06;;;;;;;16.77;12.88;;;5.60;99.90;;;;;;5035652;28;20038;-66
2023/12/23 03:38:32;;;;;;;18.50;13.57;;;5.70;99.90;;;;;;5035780;28;20487;-66
2023/12/23 03:40:57;;;;;;;12.90;9.95;;;5.70;99.90;;;;;;5035710;28;20032;-66
2023/12/23 03:43:23;;;;;;;14.73;12.07;;;5.70;99.90;;;;;;5035520;28;20430;-68
2023/12/23 03:45:49;;;;;;;13.80;10.63;;;5.80;99.90;;;;;;5034322;28;20059;-62
2023/12/23 03:48:14;;;;;;;12.80;10.32;;;5.80;99.90;;;;;;5035677;28;20067;-63
2023/12/23 03:50:40;;;;;;;13.40;10.98;;;5.70;99.90;;;;;;5035511;28;20021;-68
2023/12/23 03:53:06;;;;;;;12.52;9.75;;;5.70;99.90;;;;;;5035298;28;20511;-69
2023/12/23 03:55:35;;;;;;;10.38;9.20;;;5.70;99.90;;;;;;5035529;28;20017;-65
2023/12/23 03:58:01;;;;;;;14.95;10.85;;;5.70;99.90;;;;;;5035188;28;20041;-61
2023/12/23 04:00:27;;;;;;;13.25;10.40;;;5.70;99.90;;;;;;5033878;28;20407;-63
2023/12/23 04:02:53;;;;;;;11.00;9.23;;;5.70;99.90;;;;;;5035473;28;20047;-67
2023/12/23 04:05:19;;;;;;;10.85;8.82;;;5.70;99.90;;;;;;5034123;28;20060;-62
2023/12/23 04:07:48;;;;;;;10.18;8.15;;;5.80;99.90;;;;;;5033892;28;20049;-66
2023/12/23 04:10:14;;;;;;;9.80;8.00;;;5.80;99.90;;;;;;5035165;28;20030;-63
2023/12/23 04:12:40;;;;;;;15.10;11.18;;;5.90;99.90;;;;;;5034990;28;20028;-66
2023/12/23 04:15:06;;;;;;;13.57;10.77;;;5.90;99.90;;;;;;5035019;28;20024;-65
2023/12/23 04:17:32;;;;;;;15.23;11.50;;;5.90;99.90;;;;;;5035219;28;20376;-62
2023/12/23 04:19:58;;;;;;;21.70;15.15;;;5.70;99.90;;;;;;5035081;28;20013;-64
2023/12/23 04:22:23;;;;;;;13.70;10.65;;;5.70;99.90;;;;;;5034810;28;20026;-68
2023/12/23 04:24:49;;;;;;;13.23;10.80;;;5.80;99.90;;;;;;5034748;28;20544;-67
2023/12/23 04:27:15;;;;;;;12.68;9.90;;;5.90;99.90;;;;;;5034637;28;20018;-68
2023/12/23 04:29:41;;;;;;;9.93;8.48;;;6.00;99.90;;;;;;5035276;28;20056;-66
2023/12/23 04:32:07;;;;;;;11.20;9.93;;;6.00;99.90;;;;;;5034759;28;20481;-62
2023/12/23 04:34:32;;;;;;;10.60;8.82;;;6.10;99.90;;;;;;5034697;28;20423;-63
2023/12/23 04:36:58;;;;;;;9.85;8.30;;;6.10;99.90;;;;;;5034575;28;20049;-62
2023/12/23 04:39:24;;;;;;;11.13;9.60;;;6.10;99.90;;;;;;5034505;28;20028;-67
2023/12/23 04:41:50;;;;;;;11.77;9.60;;;6.10;99.90;;;;;;5034353;28;20076;-67
2023/12/23 04:44:16;;;;;;;13.52;10.20;;;6.10;99.90;;;;;;5034509;28;20025;-69
2023/12/23 04:46:45;;;;;;;9.55;8.10;;;6.10;99.90;;;;;;5034372;28;20045;-66
2023/12/23 04:49:11;;;;;;;8.77;6.82;;;6.20;99.90;;;;;;5034557;28;20035;-66
2023/12/23 04:51:37;;;;;;;4.70;4.15;;;6.30;99.90;;;;;;5034430;28;20434;-62
2023/12/23 04:54:03;;;;;;;4.18;3.40;;;6.40;99.90;;;;;;5034258;28;20034;-70
2023/12/23 04:56:28;;;;;;;4.15;2.97;;;6.50;99.90;;;;;;5034117;28;20029;-65
2023/12/23 04:58:57;;;;;;;3.45;3.15;;;6.60;99.90;;;;;;5034018;28;20065;-68
2023/12/23 05:01:25;;;;;;;3.40;3.10;;;6.70;99.90;;;;;;5033998;28;20033;-65
2023/12/23 05:03:51;;;;;;;3.17;2.80;;;6.80;99.90;;;;;;5034208;28;20034;-67
2023/12/23 05:06:17;;;;;;;2.95;2.70;;;6.80;99.90;;;;;;5034127;28;20388;-65
2023/12/23 05:08:42;;;;;;;2.83;2.30;;;6.90;99.90;;;;;;5033905;28;20025;-60
2023/12/23 05:11:08;;;;;;;2.42;2.22;;;7.10;99.90;;;;;;5033946;28;20029;-70
2023/12/23 05:13:34;;;;;;;2.15;1.95;;;7.20;99.90;;;;;;5033882;28;20040;-60
2023/12/23 05:15:59;;;;;;;3.08;2.33;;;7.30;99.90;;;;;;5034063;28;20067;-65
2023/12/23 05:18:25;;;;;;;1.73;1.63;;;7.30;99.90;;;;;;5033798;28;20018;-67
2023/12/23 05:20:51;;;;;;;1.98;1.88;;;7.30;99.90;;;;;;5033805;28;20022;-62
2023/12/23 05:23:16;;;;;;;2.47;2.28;;;7.40;99.90;;;;;;5033833;28;20033;-70
2023/12/23 05:25:42;;;;;;;2.08;1.98;;;7.40;99.90;;;;;;5033473;28;20025;-69
2023/12/23 05:28:08;;;;;;;1.48;1.38;;;7.50;99.90;;;;;;5032421;28;20033;-65
2023/12/23 05:30:34;;;;;;;1.65;1.55;;;7.50;99.90;;;;;;5033688;28;20028;-71
2023/12/23 05:33:00;;;;;;;1.17;1.08;;;7.50;99.90;;;;;;5033519;28;20075;-64
2023/12/23 05:35:26;;;;;;;1.15;1.05;;;7.50;99.90;;;;;;5033281;28;20021;-62
2023/12/23 05:37:51;;;;;;;1.30;1.17;;;7.60;99.90;;;;;;5033579;28;20079;-63
2023/12/23 05:40:17;;;;;;;2.88;1.90;;;7.50;99.90;;;;;;5033287;28;20025;-69
2023/12/23 05:42:43;;;;;;;1.40;1.00;;;7.50;99.90;;;;;;5033496;28;20053;-62
2023/12/23 05:45:09;;;;;;;1.13;1.02;;;7.50;99.90;;;;;;5033585;28;20078;-68
2023/12/23 05:47:35;;;;;;;1.15;0.90;;;7.60;99.90;;;;;;5033432;28;20017;-66
2023/12/23 05:50:00;;;;;;;19.52;12.38;;;7.60;99.90;;;;;;5033277;28;20052;-69
2023/12/23 05:52:26;;;;;;;14.65;9.02;;;7.50;99.90;;;;;;5033390;28;20026;-63
2023/12/23 05:54:52;;;;;;;9.40;6.13;;;7.20;99.90;;;;;;5033057;28;20105;-63
2023/12/23 05:57:17;;;;;;;7.30;5.55;;;7.00;99.90;;;;;;5033275;28;20491;-67
2023/12/23 05:59:43;;;;;;;8.15;5.38;;;6.80;99.90;;;;;;5033147;28;20523;-67
2023/12/23 06:02:09;;;;;;;5.43;4.30;;;6.70;99.90;;;;;;5033251;28;20021;-66
2023/12/23 06:04:35;;;;;;;5.25;4.55;;;6.80;99.90;;;;;;5033072;28;20028;-66
2023/12/23 06:07:01;;;;;;;5.30;4.15;;;6.70;99.90;;;;;;5033387;28;20021;-65
2023/12/23 06:09:27;;;;;;;7.50;5.18;;;6.70;99.90;;;;;;5033065;28;20028;-64
2023/12/23 06:11:53;;;;;;;20.33;15.63;;;6.60;99.90;;;;;;5033044;28;20021;-69
2023/12/23 06:14:18;;;;;;;13.52;10.82;;;6.60;99.90;;;;;;5033007;28;20124;-67
2023/12/23 06:16:44;;;;;;;28.52;21.92;;;6.50;99.90;;;;;;5033217;28;20021;-66
2023/12/23 06:19:10;;;;;;;37.28;27.98;;;6.40;99.90;;;;;;5033148;28;20026;-69
2023/12/23 06:21:36;;;;;;;33.83;28.67;;;6.40;99.90;;;;;;5032970;28;20413;-69
2023/12/23 06:24:02;;;;;;;25.95;20.92;;;6.40;99.90;;;;;;5032929;28;20025;-62
2023/12/23 06:26:28;;;;;;;21.77;18.70;;;6.40;99.90;;;;;;5033294;28;20426;-71
2023/12/23 06:28:54;;;;;;;17.55;15.63;;;6.60;99.90;;;;;;5032904;28;20029;-64
2023/12/23 06:31:20;;;;;;;15.13;13.45;;;6.60;99.90;;;;;;5032974;28;20029;-69
2023/12/23 06:33:45;;;;;;;19.80;16.10;;;6.70;99.90;;;;;;5032946;28;20087;-62
2023/12/23 06:36:11;;;;;;;16.55;14.23;;;6.70;99.90;;;;;;5032885;28;20030;-59
2023/12/23 06:38:37;;;;;;;15.77;13.75;;;6.60;99.90;;;;;;5032811;28;20022;-63
2023/12/23 06:41:03;;;;;;;28.67;23.45;;;6.70;99.90;;;;;;5031697;28;20391;-63
2023/12/23 06:43:30;;;;;;;29.58;23.02;;;6.80;99.90;;;;;;5032794;28;20025;-64
2023/12/23 06:45:56;;;;;;;16.98;13.43;;;6.90;99.90;;;;;;5032923;28;20078;-63
2023/12/23 06:48:22;;;;;;;12.35;9.82;;;6.70;99.90;;;;;;5035011;28;20029;-61
2023/12/23 06:50:48;;;;;;;14.57;11.60;;;6.50;99.90;;;;;;5036587;28;20380;-62
2023/12/23 06:53:14;;;;;;;12.27;10.45;;;6.50;99.90;;;;;;5036380;28;20025;-65
2023/12/23 06:55:40;;;;;;;18.95;14.80;;;6.50;99.90;;;;;;5036629;28;20091;-67
2023/12/23 06:58:07;;;;;;;15.13;12.00;;;6.60;99.90;;;;;;5036377;28;20049;-68
2023/12/23 07:00:33;;;;;;;15.30;12.50;;;6.60;99.90;;;;;;5036419;28;20031;-67
2023/12/23 07:02:58;;;;;;;13.30;9.85;;;6.70;99.90;;;;;;5036520;28;20099;-68
2023/12/23 07:05:24;;;;;;;17.08;11.90;;;6.70;99.90;;;;;;5036423;28;20045;-64
2023/12/23 07:07:50;;;;;;;16.30;11.15;;;6.70;99.90;;;;;;5036106;28;20083;-60
2023/12/23 07:10:16;;;;;;;13.30;10.40;;;6.60;99.90;;;;;;5036428;28;20024;-64
2023/12/23 07:12:41;;;;;;;20.15;14.30;;;6.60;99.90;;;;;;5036173;28;20100;-65
2023/12/23 07:15:08;;;;;;;15.82;12.77;;;6.70;99.90;;;;;;5036186;28;20100;-65
2023/12/23 07:17:34;;;;;;;16.88;11.93;;;6.90;99.90;;;;;;5036139;28;20028;-64
2023/12/23 07:20:00;;;;;;;13.90;10.85;;;7.00;99.90;;;;;;5035997;28;20384;-67
2023/12/23 07:22:28;;;;;;;11.55;10.32;;;7.20;99.90;;;;;;5036082;28;20032;-69
2023/12/23 07:24:57;;;;;;;13.25;10.82;;;7.40;99.90;;;;;;5036181;28;20024;-59
2023/12/23 07:27:23;;;;;;;18.23;14.25;;;7.60;99.90;;;;;;5035989;28;20018;-65
2023/12/23 07:29:48;;;;;;;15.13;12.75;;;7.80;99.90;;;;;;5035945;28;20099;-66
2023/12/23 07:32:14;;;;;;;20.98;16.15;;;7.90;99.90;;;;;;5035936;28;20049;-64
2023/12/23 07:34:40;;;;;;;23.05;16.90;;;7.90;99.90;;;;;;5035636;28;20035;-59
2023/12/23 07:37:07;;;;;;;37.65;32.58;;;7.80;99.90;;;;;;5035716;28;20361;-65
2023/12/23 07:39:33;;;;;;;50.95;39.65;;;7.70;99.90;;;;;;5035742;28;20444;-62
2023/12/23 07:41:59;;;;;;;42.38;35.85;;;7.60;99.90;;;;;;5035642;28;20029;-67
2023/12/23 07:44:25;;;;;;;39.13;33.83;;;7.60;99.90;;;;;;5035699;28;20017;-67
2023/12/23 07:46:51;;;;;;;58.40;47.35;;;7.60;99.90;;;;;;5035475;28;20021;-65
2023/12/23 07:49:16;;;;;;;49.20;36.22;;;7.70;99.90;;;;;;5035417;28;20021;-66
2023/12/23 07:51:42;;;;;;;51.97;36.90;;;7.70;99.90;;;;;;5035619;28;20022;-60
2023/12/23 07:54:07;;;;;;;38.00;30.95;;;7.70;99.90;;;;;;5035348;28;20033;-61
2023/12/23 07:56:33;;;;;;;39.50;31.75;;;7.70;99.90;;;;;;5035496;28;20526;-63
2023/12/23 07:58:59;;;;;;;39.92;31.58;;;7.80;99.90;;;;;;5034643;28;20085;-63
2023/12/23 08:01:25;;;;;;;49.63;37.08;;;7.90;99.90;;;;;;5035175;28;20026;-62
2023/12/23 08:03:51;;;;;;;49.78;39.78;;;7.80;99.90;;;;;;5035262;28;20075;-66
2023/12/23 08:06:18;;;;;;;51.42;42.03;;;7.90;99.90;;;;;;5035365;28;20468;-65
2023/12/23 08:08:47;;;;;;;44.33;35.50;;;8.00;99.90;;;;;;5035005;28;20033;-61
2023/12/23 08:11:13;;;;;;;38.95;34.20;;;8.10;99.90;;;;;;5035270;28;20029;-70
2023/12/23 08:13:40;;;;;;;36.58;32.10;;;8.20;99.90;;;;;;5035003;28;20029;-64
2023/12/23 08:16:07;;;;;;;34.10;29.13;;;8.30;99.90;;;;;;5035049;28;20021;-66
2023/12/23 08:18:32;;;;;;;29.52;26.00;;;8.30;99.90;;;;;;5033568;28;20026;-68
2023/12/23 08:20:58;;;;;;;33.03;26.98;;;8.40;99.90;;;;;;5033679;28;20029;-61
2023/12/23 08:23:24;;;;;;;32.28;24.95;;;8.40;99.90;;;;;;5034924;28;20065;-66
2023/12/23 08:25:50;;;;;;;31.23;25.33;;;8.50;99.90;;;;;;5034853;28;20029;-66
2023/12/23 08:28:16;;;;;;;28.90;24.27;;;8.60;99.90;;;;;;5034839;28;20036;-64
2023/12/23 08:30:41;;;;;;;29.50;25.75;;;8.60;99.90;;;;;;5034800;28;20021;-63
2023/12/23 08:33:07;;;;;;;29.00;25.50;;;8.60;99.90;;;;;;5034443;28;20029;-65
2023/12/23 08:35:33;;;;;;;26.58;22.25;;;8.70;99.90;;;;;;5034792;28;20096;-61
2023/12/23 08:37:59;;;;;;;29.55;23.77;;;8.70;99.90;;;;;;5034688;28;20017;-63
2023/12/23 08:40:25;;;;;;;25.85;21.60;;;8.80;99.90;;;;;;5034520;28;20471;-67
2023/12/23 08:42:51;;;;;;;29.40;24.63;;;8.90;99.90;;;;;;5034682;28;20092;-65
2023/12/23 08:45:17;;;;;;;23.38;20.02;;;9.00;99.90;;;;;;5034498;28;20022;-66
2023/12/23 08:47:43;;;;;;;23.30;20.15;;;9.20;99.90;;;;;;5034213;28;20502;-67
2023/12/23 08:50:09;;;;;;;21.27;19.00;;;9.50;99.90;;;;;;5034474;28;20022;-68
2023/12/23 08:52:35;;;;;;;31.60;25.35;;;9.90;99.90;;;;;;5033241;28;20494;-65
2023/12/23 08:55:02;;;;;;;25.70;21.65;;;10.20;97.90;;;;;;5034193;28;20041;-68
2023/12/23 08:57:28;;;;;;;28.63;23.98;;;10.40;98.40;;;;;;5034350;28;20025;-66
2023/12/23 08:59:54;;;;;;;25.77;22.65;;;11.10;96.50;;;;;;5034228;28;20025;-70
2023/12/23 09:02:20;;;;;;;27.23;23.15;;;11.20;95.10;;;;;;5033975;28;20099;-61
2023/12/23 09:04:46;;;;;;;27.58;22.63;;;11.60;93.70;;;;;;5034106;28;20563;-66
2023/12/23 09:07:13;;;;;;;28.08;24.35;;;11.50;93.20;;;;;;5034161;28;20093;-68
2023/12/23 09:09:42;;;;;;;30.20;25.75;;;11.50;92.50;;;;;;5033623;28;20017;-64
2023/12/23 09:12:08;;;;;;;26.08;22.73;;;11.40;90.40;;;;;;5033663;28;20021;-67
2023/12/23 09:14:33;;;;;;;29.17;25.38;;;11.20;91.70;;;;;;5033864;28;20055;-67
2023/12/23 09:16:59;;;;;;;27.70;23.55;;;11.10;91.80;;;;;;5033797;28;20077;-65
2023/12/23 09:19:25;;;;;;;32.88;26.98;;;10.80;92.70;;;;;;5033786;28;20025;-65
2023/12/23 09:21:50;;;;;;;37.22;30.60;;;10.90;94.40;;;;;;5033859;28;20026;-72
2023/12/23 09:24:16;;;;;;;38.72;30.27;;;11.20;92.10;;;;;;5033830;28;20391;-68
2023/12/23 09:26:43;;;;;;;30.65;23.48;;;11.30;89.20;;;;;;5033674;28;20028;-67
2023/12/23 09:29:09;;;;;;;28.05;22.27;;;11.60;78.90;;;;;;5033864;28;20018;-65
2023/12/23 09:31:34;;;;;;;21.75;18.55;;;11.90;80.00;;;;;;5033512;28;20548;-63
2023/12/23 09:34:00;;;;;;;16.75;14.85;;;12.20;73.60;;;;;;5033532;28;20052;-63
2023/12/23 09:36:26;;;;;;;11.73;10.18;;;12.70;68.70;;;;;;5033678;28;20026;-67
2023/12/23 09:38:52;;;;;;;13.35;11.43;;;13.10;61.30;;;;;;5033577;28;20115;-66
2023/12/23 09:41:18;;;;;;;21.95;16.98;;;13.40;64.40;;;;;;5033461;28;20017;-63
2023/12/23 09:43:44;;;;;;;14.88;12.50;;;13.80;61.40;;;;;;5033491;28;20523;-67
2023/12/23 09:46:14;;;;;;;14.80;13.20;;;13.90;59.10;;;;;;5033289;28;20018;-65
2023/12/23 09:48:40;;;;;;;14.88;12.60;;;14.00;57.00;;;;;;5033314;28;20021;-67
2023/12/23 09:51:07;;;;;;;14.63;12.25;;;14.20;57.80;;;;;;5033381;28;20026;-67
2023/12/23 09:53:37;;;;;;;13.25;11.07;;;14.50;56.60;;;;;;5033283;28;20030;-62
2023/12/23 09:56:07;;;;;;;10.23;8.80;;;14.40;54.40;;;;;;5033268;28;20108;-62
2023/12/23 09:58:34;;;;;;;7.32;6.50;;;13.90;53.40;;;;;;5033216;28;20041;-69
2023/12/23 10:01:00;;;;;;;7.57;6.78;;;13.40;53.20;;;;;;5032976;28;20032;-70
2023/12/23 10:03:26;;;;;;;6.13;5.53;;;13.10;54.90;;;;;;5033170;28;20075;-66
2023/12/23 10:05:52;;;;;;;5.07;4.57;;;13.10;54.90;;;;;;5033135;28;20022;-66
2023/12/23 10:08:18;;;;;;;4.22;3.80;;;13.20;53.80;;;;;;5033201;28;20013;-66
2023/12/23 10:10:46;;;;;;;3.70;3.40;;;13.40;54.50;;;;;;5033224;28;20041;-70
2023/12/23 10:13:12;;;;;;;3.92;3.20;;;13.70;54.30;;;;;;5033036;28;20037;-65
2023/12/23 10:15:41;;;;;;;4.45;3.72;;;13.90;54.10;;;;;;5032903;28;20365;-67
2023/12/23 10:18:10;;;;;;;7.22;6.53;;;14.30;53.70;;;;;;5033048;28;20025;-62
2023/12/23 10:20:36;;;;;;;3.97;3.58;;;14.70;51.50;;;;;;5033026;28;20013;-67
2023/12/23 10:23:02;;;;;;;4.63;4.13;;;14.60;49.70;;;;;;5036574;28;20541;-62
2023/12/23 10:25:29;;;;;;;5.88;5.03;;;14.60;49.90;;;;;;5037174;28;20036;-67
2023/12/23 10:27:59;;;;;;;4.47;4.00;;;14.70;49.60;;;;;;5037102;28;20124;-64
2023/12/23 10:30:28;;;;;;;3.42;3.13;;;14.90;51.50;;;;;;5036976;28;20025;-65
2023/12/23 10:32:58;;;;;;;3.30;2.80;;;15.20;50.70;;;;;;5036824;28;20014;-65
2023/12/23 10:35:26;;;;;;;3.00;2.70;;;15.20;50.50;;;;;;5036977;28;20481;-61
2023/12/23 10:37:56;;;;;;;3.25;2.95;;;15.00;48.20;;;;;;5036902;28;20487;-64
2023/12/23 10:40:25;;;;;;;6.07;5.22;;;14.90;49.90;;;;;;5036845;28;20025;-67
2023/12/23 10:42:54;;;;;;;5.40;3.90;;;14.80;48.60;;;;;;5036925;28;20060;-64
2023/12/23 10:45:21;;;;;;;4.10;3.75;;;15.00;50.50;;;;;;5036664;28;20049;-64
2023/12/23 10:47:49;;;;;;;3.20;2.90;;;15.40;51.90;;;;;;5036684;28;20472;-61
2023/12/23 10:50:16;;;;;;;2.17;1.98;;;15.70;49.20;;;;;;5036759;28;20047;-66
2023/12/23 10:52:41;;;;;;;1.90;1.30;;;16.00;49.90;;;;;;5036749;28;20060;-64
2023/12/23 10:55:10;;;;;;;1.27;1.17;;;16.30;48.50;;;;;;5036724;28;20061;-70
2023/12/23 10:57:36;;;;;;;1.10;1.00;;;16.40;47.60;;;;;;5036337;28;20091;-67
2023/12/23 11:00:03;;;;;;;0.75;0.75;;;16.60;47.10;;;;;;5036358;28;20028;-68
2023/12/23 11:02:30;;;;;;;0.75;0.68;;;16.90;46.50;;;;;;5036656;28;20048;-64
2023/12/23 11:04:57;;;;;;;0.98;0.82;;;17.00;46.40;;;;;;5036548;28;20018;-62
2023/12/23 11:07:28;;;;;;;0.75;0.75;;;16.90;44.50;;;;;;5036380;28;20028;-66
2023/12/23 11:10:00;;;;;;;0.73;0.70;;;16.80;45.60;;;;;;5036284;28;20032;-67
2023/12/23 11:12:26;;;;;;;0.80;0.80;;;16.70;45.00;;;;;;5036193;28;20032;-63
2023/12/23 11:14:51;;;;;;;1.20;1.10;;;16.60;45.00;;;;;;5036238;28;20539;-65
2023/12/23 11:17:28;;;;;;;1.33;0.95;;;16.50;46.80;;;;;;5036076;28;20025;-63
2023/12/23 11:20:01;;;;;;;0.95;0.82;;;16.60;45.60;;;;;;5036287;28;20025;-68
2023/12/23 11:22:37;;;;;;;2.47;2.17;;;16.50;45.70;;;;;;5036009;28;20099;-67
2023/12/23 11:25:03;;;;;;;4.32;3.92;;;16.30;46.00;;;;;;5036010;28;20104;-64
2023/12/23 11:27:36;;;;;;;3.30;3.00;;;16.20;45.50;;;;;;5035871;28;20057;-67
2023/12/23 11:30:07;;;;;;;1.98;1.80;;;15.90;45.80;;;;;;5035985;28;20060;-64
2023/12/23 11:32:36;;;;;;;1.77;1.67;;;15.80;45.70;;;;;;5035635;28;20036;-62
2023/12/23 11:35:12;;;;;;;2.03;1.90;;;15.70;47.50;;;;;;5035150;28;20037;-64
2023/12/23 11:37:57;;;;;;;2.03;1.83;;;15.90;48.20;;;;;;5035809;28;20104;-62
2023/12/23 11:40:23;;;;;;;1.58;1.48;;;16.10;47.50;;;;;;5035709;28;20025;-67
2023/12/23 11:42:49;;;;;;;1.90;1.45;;;16.30;45.70;;;;;;5035624;28;20079;-65
2023/12/23 11:45:16;;;;;;;3.25;2.88;;;16.10;45.10;;;;;;5035751;28;20023;-65
2023/12/23 11:47:42;;;;;;;3.40;3.10;;;15.60;45.40;;;;;;5035515;28;20033;-70
2023/12/23 11:50:09;;;;;;;3.28;2.97;;;15.10;47.20;;;;;;5035643;28;20108;-68
2023/12/23 11:52:35;;;;;;;3.92;3.63;;;14.90;47.80;;;;;;5035494;28;20021;-64
2023/12/23 11:55:02;;;;;;;3.47;3.15;;;14.70;48.80;;;;;;5035343;28;20488;-63
2023/12/23 11:57:28;;;;;;;3.70;3.03;;;14.80;47.20;;;;;;5035015;28;20053;-63
2023/12/23 11:59:58;;;;;;;2.70;2.50;;;15.10;48.30;;;;;;5035314;28;20060;-65
2023/12/23 12:02:25;;;;;;;3.45;2.92;;;15.50;47.90;;;;;;5035284;28;20034;-68
2023/12/23 12:04:51;;;;;;;2.40;2.20;;;15.50;46.40;;;;;;5035405;28;20070;-67
2023/12/23 12:07:19;;;;;;;2.33;2.10;;;15.50;47.50;;;;;;5035287;28;20025;-67
2023/12/23 12:09:46;;;;;;;1.58;1.48;;;15.90;48.20;;;;;;5035155;28;20018;-65
2023/12/23 12:12:12;;;;;;;2.55;2.30;;;16.20;46.40;;;;;;5034995;28;20541;-62
2023/12/23 12:14:38;;;;;;;2.05;1.90;;;16.40;46.00;;;;;;5035085;28;20026;-64
2023/12/23 12:17:05;;;;;;;1.95;1.70;;;16.30;46.10;;;;;;5035021;28;20029;-64
2023/12/23 12:19:31;;;;;;;1.90;1.48;;;16.30;45.40;;;;;;5033798;28;20116;-63
2023/12/23 12:21:57;;;;;;;1.33;1.23;;;16.30;45.70;;;;;;5035026;28;20101;-66
2023/12/23 12:24:23;;;;;;;1.48;1.38;;;16.50;45.30;;;;;;5034947;28;20026;-62
2023/12/23 12:26:52;;;;;;;2.20;1.40;;;16.80;45.10;;;;;;5034621;28;20020;-64
2023/12/23 12:29:20;;;;;;;2.53;1.90;;;17.00;44.70;;;;;;5034873;28;20026;-65
2023/12/23 12:31:46;;;;;;;2.10;1.80;;;17.10;43.90;;;;;;5034829;28;20024;-67
2023/12/23 12:34:12;;;;;;;1.70;1.60;;;16.90;44.00;;;;;;5034670;28;20407;-63
2023/12/23 12:36:38;;;;;;;2.50;2.17;;;17.00;44.50;;;;;;5034725;28;20021;-64